sensor_id;sensor_type;location;lat;lon;timestamp;P1;durP1;ratioP1;P2;durP2;ratioP2
54881;SDS011;40775;51.448;4.742;2023-05-10T00:02:23;3.03;;;1.45;;
54881;SDS011;40775;51.448;4.742;2023-05-10T00:04:51;4.00;;;1.70;;
54881;SDS011;40775;51.448;4.742;2023-05-10T00:07:19;2.78;;;1.45;;
54881;SDS011;40775;51.448;4.742;2023-05-10T00:09:46;3.30;;;1.63;;
54881;SDS011;40775;51.448;4.742;2023-05-10T00:12:14;3.83;;;1.52;;
54881;SDS011;40775;51.448;4.742;2023-05-10T00:14:41;3.83;;;1.92;;
54881;SDS011;40775;51.448;4.742;2023-05-10T00:17:08;2.88;;;1.40;;
54881;SDS011;40775;51.448;4.742;2023-05-10T00:19:36;5.13;;;1.70;;
54881;SDS011;40775;51.448;4.742;2023-05-10T00:22:03;3.42;;;1.58;;
54881;SDS011;40775;51.448;4.742;2023-05-10T00:24:30;5.35;;;2.00;;
54881;SDS011;40775;51.448;4.742;2023-05-10T00:26:57;4.32;;;2.28;;
54881;SDS011;40775;51.448;4.742;2023-05-10T00:29:25;3.97;;;1.98;;
54881;SDS011;40775;51.448;4.742;2023-05-10T00:31:54;2.85;;;1.58;;
54881;SDS011;40775;51.448;4.742;2023-05-10T00:34:22;5.45;;;2.20;;
54881;SDS011;40775;51.448;4.742;2023-05-10T00:36:50;4.75;;;2.08;;
54881;SDS011;40775;51.448;4.742;2023-05-10T00:39:18;4.32;;;2.38;;
54881;SDS011;40775;51.448;4.742;2023-05-10T00:41:45;4.35;;;1.92;;
54881;SDS011;40775;51.448;4.742;2023-05-10T00:44:13;4.65;;;1.90;;
54881;SDS011;40775;51.448;4.742;2023-05-10T00:46:40;3.47;;;1.77;;
54881;SDS011;40775;51.448;4.742;2023-05-10T00:49:08;3.40;;;1.95;;
54881;SDS011;40775;51.448;4.742;2023-05-10T00:51:36;4.70;;;2.20;;
54881;SDS011;40775;51.448;4.742;2023-05-10T00:54:03;4.35;;;2.15;;
54881;SDS011;40775;51.448;4.742;2023-05-10T00:56:31;4.65;;;2.35;;
54881;SDS011;40775;51.448;4.742;2023-05-10T00:58:59;3.97;;;1.92;;
54881;SDS011;40775;51.448;4.742;2023-05-10T01:01:27;2.97;;;1.85;;
54881;SDS011;40775;51.448;4.742;2023-05-10T01:03:55;5.63;;;2.25;;
54881;SDS011;40775;51.448;4.742;2023-05-10T01:06:23;4.05;;;2.05;;
54881;SDS011;40775;51.448;4.742;2023-05-10T01:08:50;6.53;;;2.70;;
54881;SDS011;40775;51.448;4.742;2023-05-10T01:11:17;4.95;;;2.60;;
54881;SDS011;40775;51.448;4.742;2023-05-10T01:13:46;5.53;;;2.17;;
54881;SDS011;40775;51.448;4.742;2023-05-10T01:16:18;6.70;;;3.00;;
54881;SDS011;40775;51.448;4.742;2023-05-10T01:18:46;5.35;;;2.58;;
54881;SDS011;40775;51.448;4.742;2023-05-10T01:21:17;4.07;;;2.17;;
54881;SDS011;40775;51.448;4.742;2023-05-10T01:29:41;5.90;;;2.75;;
54881;SDS011;40775;51.448;4.742;2023-05-10T01:43:48;7.43;;;2.97;;
54881;SDS011;40775;51.448;4.742;2023-05-10T01:46:24;5.57;;;2.85;;
54881;SDS011;40775;51.448;4.742;2023-05-10T01:49:09;5.35;;;2.47;;
54881;SDS011;40775;51.448;4.742;2023-05-10T01:51:50;4.30;;;2.60;;
54881;SDS011;40775;51.448;4.742;2023-05-10T01:54:21;6.13;;;2.83;;
54881;SDS011;40775;51.448;4.742;2023-05-10T01:56:52;5.47;;;2.72;;
54881;SDS011;40775;51.448;4.742;2023-05-10T01:59:25;5.90;;;2.85;;
54881;SDS011;40775;51.448;4.742;2023-05-10T02:01:57;5.20;;;2.72;;
54881;SDS011;40775;51.448;4.742;2023-05-10T02:04:26;5.82;;;2.80;;
54881;SDS011;40775;51.448;4.742;2023-05-10T02:06:54;5.13;;;3.03;;
54881;SDS011;40775;51.448;4.742;2023-05-10T02:09:22;5.82;;;2.55;;
54881;SDS011;40775;51.448;4.742;2023-05-10T02:11:54;5.80;;;3.05;;
54881;SDS011;40775;51.448;4.742;2023-05-10T02:14:23;7.10;;;3.17;;
54881;SDS011;40775;51.448;4.742;2023-05-10T02:16:52;5.18;;;2.75;;
54881;SDS011;40775;51.448;4.742;2023-05-10T02:19:22;6.57;;;3.00;;
54881;SDS011;40775;51.448;4.742;2023-05-10T02:21:51;7.13;;;3.53;;
54881;SDS011;40775;51.448;4.742;2023-05-10T02:24:20;4.80;;;2.58;;
54881;SDS011;40775;51.448;4.742;2023-05-10T02:26:51;7.22;;;3.58;;
54881;SDS011;40775;51.448;4.742;2023-05-10T02:29:20;6.20;;;3.30;;
54881;SDS011;40775;51.448;4.742;2023-05-10T02:34:22;5.55;;;2.95;;
54881;SDS011;40775;51.448;4.742;2023-05-10T02:36:52;6.45;;;3.13;;
54881;SDS011;40775;51.448;4.742;2023-05-10T02:39:21;7.75;;;3.53;;
54881;SDS011;40775;51.448;4.742;2023-05-10T02:41:50;5.78;;;2.85;;
54881;SDS011;40775;51.448;4.742;2023-05-10T02:44:19;6.20;;;3.15;;
54881;SDS011;40775;51.448;4.742;2023-05-10T02:46:48;7.32;;;3.25;;
54881;SDS011;40775;51.448;4.742;2023-05-10T02:49:16;5.70;;;2.90;;
54881;SDS011;40775;51.448;4.742;2023-05-10T02:51:47;7.10;;;3.10;;
54881;SDS011;40775;51.448;4.742;2023-05-10T02:54:24;5.50;;;2.92;;
54881;SDS011;40775;51.448;4.742;2023-05-10T02:56:58;7.13;;;3.70;;
54881;SDS011;40775;51.448;4.742;2023-05-10T02:59:29;5.75;;;3.47;;
54881;SDS011;40775;51.448;4.742;2023-05-10T03:01:57;5.35;;;3.13;;
54881;SDS011;40775;51.448;4.742;2023-05-10T03:04:26;6.82;;;3.60;;
54881;SDS011;40775;51.448;4.742;2023-05-10T03:06:53;8.40;;;3.92;;
54881;SDS011;40775;51.448;4.742;2023-05-10T03:09:21;7.40;;;3.92;;
54881;SDS011;40775;51.448;4.742;2023-05-10T03:17:30;6.60;;;3.60;;
54881;SDS011;40775;51.448;4.742;2023-05-10T03:20:12;7.38;;;3.95;;
54881;SDS011;40775;51.448;4.742;2023-05-10T03:22:55;7.75;;;4.13;;
54881;SDS011;40775;51.448;4.742;2023-05-10T03:25:46;6.82;;;3.35;;
54881;SDS011;40775;51.448;4.742;2023-05-10T03:28:16;10.43;;;4.82;;
54881;SDS011;40775;51.448;4.742;2023-05-10T03:30:46;8.32;;;4.63;;
54881;SDS011;40775;51.448;4.742;2023-05-10T03:33:15;5.82;;;3.20;;
54881;SDS011;40775;51.448;4.742;2023-05-10T03:35:42;6.78;;;4.00;;
54881;SDS011;40775;51.448;4.742;2023-05-10T03:38:12;6.47;;;3.30;;
54881;SDS011;40775;51.448;4.742;2023-05-10T03:40:39;7.35;;;3.15;;
54881;SDS011;40775;51.448;4.742;2023-05-10T03:43:07;8.40;;;3.55;;
54881;SDS011;40775;51.448;4.742;2023-05-10T03:45:34;6.55;;;2.92;;
54881;SDS011;40775;51.448;4.742;2023-05-10T03:48:02;4.65;;;2.50;;
54881;SDS011;40775;51.448;4.742;2023-05-10T03:50:30;6.30;;;2.88;;
54881;SDS011;40775;51.448;4.742;2023-05-10T03:52:57;6.55;;;3.58;;
54881;SDS011;40775;51.448;4.742;2023-05-10T03:55:25;3.92;;;2.28;;
54881;SDS011;40775;51.448;4.742;2023-05-10T03:57:52;4.10;;;2.30;;
54881;SDS011;40775;51.448;4.742;2023-05-10T04:00:23;4.88;;;2.13;;
54881;SDS011;40775;51.448;4.742;2023-05-10T04:02:51;4.45;;;2.42;;
54881;SDS011;40775;51.448;4.742;2023-05-10T04:05:18;4.75;;;2.38;;
54881;SDS011;40775;51.448;4.742;2023-05-10T04:07:46;5.97;;;2.47;;
54881;SDS011;40775;51.448;4.742;2023-05-10T04:10:15;5.55;;;2.50;;
54881;SDS011;40775;51.448;4.742;2023-05-10T04:12:43;5.07;;;2.28;;
54881;SDS011;40775;51.448;4.742;2023-05-10T04:15:10;5.00;;;2.33;;
54881;SDS011;40775;51.448;4.742;2023-05-10T04:17:38;5.68;;;2.17;;
54881;SDS011;40775;51.448;4.742;2023-05-10T04:20:06;4.95;;;2.22;;
54881;SDS011;40775;51.448;4.742;2023-05-10T04:22:34;5.10;;;2.15;;
54881;SDS011;40775;51.448;4.742;2023-05-10T04:25:02;5.13;;;2.58;;
54881;SDS011;40775;51.448;4.742;2023-05-10T04:27:31;5.85;;;2.30;;
54881;SDS011;40775;51.448;4.742;2023-05-10T04:29:59;4.82;;;2.13;;
54881;SDS011;40775;51.448;4.742;2023-05-10T04:32:26;5.60;;;2.53;;
54881;SDS011;40775;51.448;4.742;2023-05-10T04:34:54;7.03;;;2.65;;
54881;SDS011;40775;51.448;4.742;2023-05-10T04:37:21;4.25;;;1.88;;
54881;SDS011;40775;51.448;4.742;2023-05-10T04:39:49;4.57;;;2.15;;
54881;SDS011;40775;51.448;4.742;2023-05-10T04:42:17;4.13;;;2.15;;
54881;SDS011;40775;51.448;4.742;2023-05-10T04:44:44;5.22;;;1.95;;
54881;SDS011;40775;51.448;4.742;2023-05-10T04:47:11;7.75;;;2.28;;
54881;SDS011;40775;51.448;4.742;2023-05-10T04:49:39;3.55;;;1.92;;
54881;SDS011;40775;51.448;4.742;2023-05-10T04:52:07;5.55;;;1.90;;
54881;SDS011;40775;51.448;4.742;2023-05-10T04:54:34;4.03;;;1.65;;
54881;SDS011;40775;51.448;4.742;2023-05-10T04:57:01;6.32;;;2.15;;
54881;SDS011;40775;51.448;4.742;2023-05-10T04:59:29;4.07;;;1.60;;
54881;SDS011;40775;51.448;4.742;2023-05-10T05:01:56;3.05;;;1.50;;
54881;SDS011;40775;51.448;4.742;2023-05-10T05:04:23;6.82;;;1.95;;
54881;SDS011;40775;51.448;4.742;2023-05-10T05:06:51;4.22;;;1.90;;
54881;SDS011;40775;51.448;4.742;2023-05-10T05:09:19;3.80;;;1.73;;
54881;SDS011;40775;51.448;4.742;2023-05-10T05:11:46;5.03;;;1.90;;
54881;SDS011;40775;51.448;4.742;2023-05-10T05:14:14;4.28;;;1.50;;
54881;SDS011;40775;51.448;4.742;2023-05-10T05:16:41;4.07;;;1.67;;
54881;SDS011;40775;51.448;4.742;2023-05-10T05:19:09;4.47;;;2.25;;
54881;SDS011;40775;51.448;4.742;2023-05-10T05:21:36;4.85;;;1.88;;
54881;SDS011;40775;51.448;4.742;2023-05-10T05:24:04;3.55;;;1.63;;
54881;SDS011;40775;51.448;4.742;2023-05-10T05:26:31;2.67;;;1.65;;
54881;SDS011;40775;51.448;4.742;2023-05-10T05:28:59;2.92;;;1.45;;
54881;SDS011;40775;51.448;4.742;2023-05-10T05:31:26;2.63;;;1.52;;
54881;SDS011;40775;51.448;4.742;2023-05-10T05:33:54;3.88;;;1.38;;
54881;SDS011;40775;51.448;4.742;2023-05-10T05:36:21;3.92;;;1.83;;
54881;SDS011;40775;51.448;4.742;2023-05-10T05:38:49;3.63;;;1.58;;
54881;SDS011;40775;51.448;4.742;2023-05-10T05:41:16;3.78;;;1.67;;
54881;SDS011;40775;51.448;4.742;2023-05-10T05:43:44;3.25;;;1.75;;
54881;SDS011;40775;51.448;4.742;2023-05-10T05:46:11;6.80;;;3.88;;
54881;SDS011;40775;51.448;4.742;2023-05-10T05:48:39;8.45;;;4.05;;
54881;SDS011;40775;51.448;4.742;2023-05-10T05:51:06;4.90;;;2.22;;
54881;SDS011;40775;51.448;4.742;2023-05-10T05:53:34;6.65;;;3.42;;
54881;SDS011;40775;51.448;4.742;2023-05-10T05:56:02;5.97;;;2.17;;
54881;SDS011;40775;51.448;4.742;2023-05-10T05:58:29;6.40;;;3.25;;
54881;SDS011;40775;51.448;4.742;2023-05-10T06:00:57;4.47;;;1.95;;
54881;SDS011;40775;51.448;4.742;2023-05-10T06:03:24;4.47;;;2.42;;
54881;SDS011;40775;51.448;4.742;2023-05-10T06:05:52;4.30;;;1.92;;
54881;SDS011;40775;51.448;4.742;2023-05-10T06:08:19;4.03;;;1.55;;
54881;SDS011;40775;51.448;4.742;2023-05-10T06:10:47;5.15;;;1.98;;
54881;SDS011;40775;51.448;4.742;2023-05-10T06:13:14;5.88;;;2.38;;
54881;SDS011;40775;51.448;4.742;2023-05-10T06:15:41;3.88;;;1.95;;
54881;SDS011;40775;51.448;4.742;2023-05-10T06:18:09;5.30;;;2.70;;
54881;SDS011;40775;51.448;4.742;2023-05-10T06:20:36;4.75;;;2.33;;
54881;SDS011;40775;51.448;4.742;2023-05-10T06:23:04;6.68;;;3.10;;
54881;SDS011;40775;51.448;4.742;2023-05-10T06:25:31;5.07;;;2.42;;
54881;SDS011;40775;51.448;4.742;2023-05-10T06:27:59;4.32;;;2.40;;
54881;SDS011;40775;51.448;4.742;2023-05-10T06:30:26;9.85;;;3.40;;
54881;SDS011;40775;51.448;4.742;2023-05-10T06:32:55;2.55;;;0.82;;
54881;SDS011;40775;51.448;4.742;2023-05-10T06:35:23;7.55;;;2.40;;
54881;SDS011;40775;51.448;4.742;2023-05-10T06:37:51;6.10;;;3.08;;
54881;SDS011;40775;51.448;4.742;2023-05-10T06:40:18;8.32;;;3.58;;
54881;SDS011;40775;51.448;4.742;2023-05-10T06:42:46;5.05;;;2.63;;
54881;SDS011;40775;51.448;4.742;2023-05-10T06:45:14;6.70;;;3.03;;
54881;SDS011;40775;51.448;4.742;2023-05-10T06:47:42;6.60;;;2.13;;
54881;SDS011;40775;51.448;4.742;2023-05-10T06:50:10;5.85;;;2.47;;
54881;SDS011;40775;51.448;4.742;2023-05-10T06:52:38;6.53;;;2.80;;
54881;SDS011;40775;51.448;4.742;2023-05-10T06:55:06;7.90;;;3.67;;
54881;SDS011;40775;51.448;4.742;2023-05-10T06:57:34;11.98;;;3.50;;
54881;SDS011;40775;51.448;4.742;2023-05-10T07:00:02;5.65;;;3.10;;
54881;SDS011;40775;51.448;4.742;2023-05-10T07:02:31;5.13;;;3.17;;
54881;SDS011;40775;51.448;4.742;2023-05-10T07:04:58;4.47;;;2.22;;
54881;SDS011;40775;51.448;4.742;2023-05-10T07:07:28;5.03;;;2.25;;
54881;SDS011;40775;51.448;4.742;2023-05-10T07:09:56;4.53;;;2.22;;
54881;SDS011;40775;51.448;4.742;2023-05-10T07:12:24;5.25;;;2.95;;
54881;SDS011;40775;51.448;4.742;2023-05-10T07:14:52;5.00;;;2.42;;
54881;SDS011;40775;51.448;4.742;2023-05-10T07:17:19;5.13;;;2.50;;
54881;SDS011;40775;51.448;4.742;2023-05-10T07:19:47;9.07;;;2.70;;
54881;SDS011;40775;51.448;4.742;2023-05-10T07:22:14;6.57;;;2.75;;
54881;SDS011;40775;51.448;4.742;2023-05-10T07:24:42;8.73;;;3.30;;
54881;SDS011;40775;51.448;4.742;2023-05-10T07:27:10;5.28;;;2.33;;
54881;SDS011;40775;51.448;4.742;2023-05-10T07:29:39;8.60;;;2.08;;
54881;SDS011;40775;51.448;4.742;2023-05-10T07:32:06;7.85;;;3.15;;
54881;SDS011;40775;51.448;4.742;2023-05-10T07:34:34;6.88;;;2.53;;
54881;SDS011;40775;51.448;4.742;2023-05-10T07:37:01;4.68;;;2.58;;
54881;SDS011;40775;51.448;4.742;2023-05-10T07:39:29;5.10;;;2.50;;
54881;SDS011;40775;51.448;4.742;2023-05-10T07:41:56;5.47;;;2.80;;
54881;SDS011;40775;51.448;4.742;2023-05-10T07:44:23;3.92;;;1.52;;
54881;SDS011;40775;51.448;4.742;2023-05-10T07:46:51;3.22;;;1.20;;
54881;SDS011;40775;51.448;4.742;2023-05-10T07:49:18;3.15;;;1.42;;
54881;SDS011;40775;51.448;4.742;2023-05-10T07:51:46;1.20;;;0.75;;
54881;SDS011;40775;51.448;4.742;2023-05-10T07:54:13;4.13;;;0.90;;
54881;SDS011;40775;51.448;4.742;2023-05-10T07:56:41;2.17;;;1.13;;
54881;SDS011;40775;51.448;4.742;2023-05-10T07:59:14;5.93;;;2.15;;
54881;SDS011;40775;51.448;4.742;2023-05-10T08:01:43;4.75;;;2.03;;
54881;SDS011;40775;51.448;4.742;2023-05-10T08:04:11;5.22;;;1.48;;
54881;SDS011;40775;51.448;4.742;2023-05-10T08:06:39;3.15;;;1.08;;
54881;SDS011;40775;51.448;4.742;2023-05-10T08:09:08;1.33;;;0.70;;
54881;SDS011;40775;51.448;4.742;2023-05-10T08:11:36;1.77;;;0.70;;
54881;SDS011;40775;51.448;4.742;2023-05-10T08:14:03;2.95;;;1.00;;
54881;SDS011;40775;51.448;4.742;2023-05-10T08:16:30;4.75;;;1.50;;
54881;SDS011;40775;51.448;4.742;2023-05-10T08:18:58;1.45;;;0.73;;
54881;SDS011;40775;51.448;4.742;2023-05-10T08:21:26;0.93;;;0.30;;
54881;SDS011;40775;51.448;4.742;2023-05-10T08:23:53;0.80;;;0.52;;
54881;SDS011;40775;51.448;4.742;2023-05-10T08:26:21;1.05;;;0.60;;
54881;SDS011;40775;51.448;4.742;2023-05-10T08:28:48;1.20;;;0.50;;
54881;SDS011;40775;51.448;4.742;2023-05-10T08:31:15;1.00;;;0.47;;
54881;SDS011;40775;51.448;4.742;2023-05-10T08:33:44;1.45;;;0.55;;
54881;SDS011;40775;51.448;4.742;2023-05-10T08:36:11;0.50;;;0.38;;
54881;SDS011;40775;51.448;4.742;2023-05-10T08:38:40;1.05;;;0.65;;
54881;SDS011;40775;51.448;4.742;2023-05-10T08:41:07;1.15;;;0.77;;
54881;SDS011;40775;51.448;4.742;2023-05-10T08:43:36;0.73;;;0.40;;
54881;SDS011;40775;51.448;4.742;2023-05-10T08:46:04;2.50;;;1.10;;
54881;SDS011;40775;51.448;4.742;2023-05-10T08:48:34;5.22;;;2.58;;
54881;SDS011;40775;51.448;4.742;2023-05-10T08:51:02;2.15;;;1.05;;
54881;SDS011;40775;51.448;4.742;2023-05-10T08:53:30;1.17;;;0.50;;
54881;SDS011;40775;51.448;4.742;2023-05-10T08:56:00;1.20;;;0.57;;
54881;SDS011;40775;51.448;4.742;2023-05-10T08:58:28;0.75;;;0.30;;
54881;SDS011;40775;51.448;4.742;2023-05-10T09:00:57;0.63;;;0.50;;
54881;SDS011;40775;51.448;4.742;2023-05-10T09:03:25;1.40;;;0.77;;
54881;SDS011;40775;51.448;4.742;2023-05-10T09:05:53;0.57;;;0.30;;
54881;SDS011;40775;51.448;4.742;2023-05-10T09:08:22;3.97;;;1.92;;
54881;SDS011;40775;51.448;4.742;2023-05-10T09:10:54;2.83;;;1.38;;
54881;SDS011;40775;51.448;4.742;2023-05-10T09:13:23;2.40;;;1.25;;
54881;SDS011;40775;51.448;4.742;2023-05-10T09:15:50;3.67;;;1.58;;
54881;SDS011;40775;51.448;4.742;2023-05-10T09:18:19;0.70;;;0.50;;
54881;SDS011;40775;51.448;4.742;2023-05-10T09:20:46;1.15;;;0.88;;
54881;SDS011;40775;51.448;4.742;2023-05-10T09:23:14;0.75;;;0.28;;
54881;SDS011;40775;51.448;4.742;2023-05-10T09:25:42;1.80;;;0.73;;
54881;SDS011;40775;51.448;4.742;2023-05-10T09:28:09;0.95;;;0.50;;
54881;SDS011;40775;51.448;4.742;2023-05-10T09:30:37;1.60;;;0.73;;
54881;SDS011;40775;51.448;4.742;2023-05-10T09:33:05;2.28;;;0.73;;
54881;SDS011;40775;51.448;4.742;2023-05-10T09:35:33;1.52;;;0.55;;
54881;SDS011;40775;51.448;4.742;2023-05-10T09:38:01;1.30;;;0.70;;
54881;SDS011;40775;51.448;4.742;2023-05-10T09:40:31;6.05;;;2.58;;
54881;SDS011;40775;51.448;4.742;2023-05-10T09:45:30;1.02;;;0.70;;
54881;SDS011;40775;51.448;4.742;2023-05-10T09:48:03;0.98;;;0.63;;
54881;SDS011;40775;51.448;4.742;2023-05-10T09:50:31;0.73;;;0.47;;
54881;SDS011;40775;51.448;4.742;2023-05-10T09:53:01;0.70;;;0.45;;
54881;SDS011;40775;51.448;4.742;2023-05-10T09:55:40;0.55;;;0.38;;
54881;SDS011;40775;51.448;4.742;2023-05-10T09:58:11;2.13;;;1.02;;
54881;SDS011;40775;51.448;4.742;2023-05-10T10:00:41;1.77;;;1.20;;
54881;SDS011;40775;51.448;4.742;2023-05-10T10:03:13;3.22;;;2.17;;
54881;SDS011;40775;51.448;4.742;2023-05-10T10:05:42;1.77;;;0.90;;
54881;SDS011;40775;51.448;4.742;2023-05-10T10:08:12;1.58;;;0.88;;
54881;SDS011;40775;51.448;4.742;2023-05-10T10:10:40;4.95;;;3.17;;
54881;SDS011;40775;51.448;4.742;2023-05-10T10:13:08;5.72;;;3.08;;
54881;SDS011;40775;51.448;4.742;2023-05-10T10:15:36;5.57;;;3.55;;
54881;SDS011;40775;51.448;4.742;2023-05-10T10:18:03;4.80;;;2.70;;
54881;SDS011;40775;51.448;4.742;2023-05-10T10:20:33;5.13;;;2.60;;
54881;SDS011;40775;51.448;4.742;2023-05-10T10:23:03;3.30;;;1.70;;
54881;SDS011;40775;51.448;4.742;2023-05-10T10:25:30;2.72;;;1.55;;
54881;SDS011;40775;51.448;4.742;2023-05-10T10:28:01;3.72;;;2.08;;
54881;SDS011;40775;51.448;4.742;2023-05-10T10:30:53;5.68;;;3.00;;
54881;SDS011;40775;51.448;4.742;2023-05-10T10:36:00;4.82;;;1.65;;
54881;SDS011;40775;51.448;4.742;2023-05-10T10:38:54;1.25;;;0.77;;
54881;SDS011;40775;51.448;4.742;2023-05-10T10:47:00;1.17;;;0.47;;
54881;SDS011;40775;51.448;4.742;2023-05-10T10:49:32;2.15;;;0.80;;
54881;SDS011;40775;51.448;4.742;2023-05-10T10:52:13;1.40;;;0.73;;
54881;SDS011;40775;51.448;4.742;2023-05-10T10:54:46;1.35;;;0.70;;
54881;SDS011;40775;51.448;4.742;2023-05-10T10:57:24;1.83;;;0.88;;
54881;SDS011;40775;51.448;4.742;2023-05-10T11:00:17;1.00;;;0.57;;
54881;SDS011;40775;51.448;4.742;2023-05-10T11:02:53;1.25;;;0.40;;
54881;SDS011;40775;51.448;4.742;2023-05-10T11:08:18;0.95;;;0.55;;
54881;SDS011;40775;51.448;4.742;2023-05-10T11:13:45;0.68;;;0.47;;
54881;SDS011;40775;51.448;4.742;2023-05-10T11:18:58;0.90;;;0.32;;
54881;SDS011;40775;51.448;4.742;2023-05-10T11:21:34;1.13;;;0.75;;
54881;SDS011;40775;51.448;4.742;2023-05-10T11:24:19;2.47;;;0.63;;
54881;SDS011;40775;51.448;4.742;2023-05-10T11:26:51;0.82;;;0.60;;
54881;SDS011;40775;51.448;4.742;2023-05-10T11:29:19;0.55;;;0.40;;
54881;SDS011;40775;51.448;4.742;2023-05-10T11:31:47;0.88;;;0.20;;
54881;SDS011;40775;51.448;4.742;2023-05-10T11:34:25;3.45;;;2.03;;
54881;SDS011;40775;51.448;4.742;2023-05-10T11:36:54;6.28;;;3.17;;
54881;SDS011;40775;51.448;4.742;2023-05-10T11:39:26;5.10;;;2.22;;
54881;SDS011;40775;51.448;4.742;2023-05-10T11:41:58;3.75;;;1.75;;
54881;SDS011;40775;51.448;4.742;2023-05-10T11:44:29;1.83;;;1.27;;
54881;SDS011;40775;51.448;4.742;2023-05-10T11:46:58;1.15;;;0.63;;
54881;SDS011;40775;51.448;4.742;2023-05-10T11:49:26;2.83;;;1.33;;
54881;SDS011;40775;51.448;4.742;2023-05-10T11:52:03;1.02;;;0.60;;
54881;SDS011;40775;51.448;4.742;2023-05-10T11:54:32;0.80;;;0.20;;
54881;SDS011;40775;51.448;4.742;2023-05-10T11:57:01;1.02;;;0.70;;
54881;SDS011;40775;51.448;4.742;2023-05-10T11:59:29;0.35;;;0.35;;
54881;SDS011;40775;51.448;4.742;2023-05-10T12:01:56;1.40;;;0.47;;
54881;SDS011;40775;51.448;4.742;2023-05-10T12:04:24;0.90;;;0.40;;
54881;SDS011;40775;51.448;4.742;2023-05-10T12:06:52;1.40;;;0.30;;
54881;SDS011;40775;51.448;4.742;2023-05-10T12:09:19;0.50;;;0.30;;
54881;SDS011;40775;51.448;4.742;2023-05-10T12:12:06;0.60;;;0.52;;
54881;SDS011;40775;51.448;4.742;2023-05-10T12:14:34;0.77;;;0.47;;
54881;SDS011;40775;51.448;4.742;2023-05-10T12:17:02;1.33;;;0.88;;
54881;SDS011;40775;51.448;4.742;2023-05-10T12:19:36;1.23;;;0.50;;
54881;SDS011;40775;51.448;4.742;2023-05-10T12:22:05;1.60;;;0.82;;
54881;SDS011;40775;51.448;4.742;2023-05-10T12:24:36;1.75;;;0.73;;
54881;SDS011;40775;51.448;4.742;2023-05-10T12:27:05;1.35;;;1.05;;
54881;SDS011;40775;51.448;4.742;2023-05-10T12:29:51;1.77;;;1.02;;
54881;SDS011;40775;51.448;4.742;2023-05-10T12:32:20;3.10;;;0.90;;
54881;SDS011;40775;51.448;4.742;2023-05-10T12:35:03;1.95;;;1.08;;
54881;SDS011;40775;51.448;4.742;2023-05-10T12:37:31;2.47;;;0.88;;
54881;SDS011;40775;51.448;4.742;2023-05-10T12:40:01;2.13;;;0.90;;
54881;SDS011;40775;51.448;4.742;2023-05-10T12:42:31;2.55;;;0.82;;
54881;SDS011;40775;51.448;4.742;2023-05-10T12:44:58;2.88;;;1.20;;
54881;SDS011;40775;51.448;4.742;2023-05-10T12:47:25;2.40;;;1.10;;
54881;SDS011;40775;51.448;4.742;2023-05-10T12:49:53;1.63;;;1.00;;
54881;SDS011;40775;51.448;4.742;2023-05-10T12:52:20;1.80;;;0.98;;
54881;SDS011;40775;51.448;4.742;2023-05-10T12:54:48;2.25;;;0.90;;
54881;SDS011;40775;51.448;4.742;2023-05-10T12:57:15;0.95;;;0.57;;
54881;SDS011;40775;51.448;4.742;2023-05-10T12:59:43;2.67;;;0.68;;
54881;SDS011;40775;51.448;4.742;2023-05-10T13:02:10;2.20;;;0.95;;
54881;SDS011;40775;51.448;4.742;2023-05-10T13:04:37;1.42;;;0.80;;
54881;SDS011;40775;51.448;4.742;2023-05-10T13:07:06;1.23;;;0.70;;
54881;SDS011;40775;51.448;4.742;2023-05-10T13:09:33;2.38;;;1.02;;
54881;SDS011;40775;51.448;4.742;2023-05-10T13:12:01;1.48;;;0.60;;
54881;SDS011;40775;51.448;4.742;2023-05-10T13:14:29;4.30;;;1.00;;
54881;SDS011;40775;51.448;4.742;2023-05-10T13:16:57;1.52;;;0.75;;
54881;SDS011;40775;51.448;4.742;2023-05-10T13:19:25;2.00;;;1.10;;
54881;SDS011;40775;51.448;4.742;2023-05-10T13:21:53;1.13;;;0.60;;
54881;SDS011;40775;51.448;4.742;2023-05-10T13:24:20;1.30;;;0.90;;
54881;SDS011;40775;51.448;4.742;2023-05-10T13:26:47;1.92;;;0.73;;
54881;SDS011;40775;51.448;4.742;2023-05-10T13:29:15;1.95;;;1.00;;
54881;SDS011;40775;51.448;4.742;2023-05-10T13:31:44;1.42;;;0.77;;
54881;SDS011;40775;51.448;4.742;2023-05-10T13:34:11;2.10;;;0.77;;
54881;SDS011;40775;51.448;4.742;2023-05-10T13:36:39;1.08;;;0.50;;
54881;SDS011;40775;51.448;4.742;2023-05-10T13:39:06;1.92;;;0.90;;
54881;SDS011;40775;51.448;4.742;2023-05-10T13:41:34;2.05;;;0.82;;
54881;SDS011;40775;51.448;4.742;2023-05-10T13:44:02;1.48;;;0.85;;
54881;SDS011;40775;51.448;4.742;2023-05-10T13:46:30;0.75;;;0.50;;
54881;SDS011;40775;51.448;4.742;2023-05-10T13:48:57;2.00;;;0.90;;
54881;SDS011;40775;51.448;4.742;2023-05-10T13:51:24;1.58;;;0.70;;
54881;SDS011;40775;51.448;4.742;2023-05-10T13:53:52;0.93;;;0.60;;
54881;SDS011;40775;51.448;4.742;2023-05-10T13:56:19;2.25;;;0.93;;
54881;SDS011;40775;51.448;4.742;2023-05-10T13:58:46;1.30;;;0.50;;
54881;SDS011;40775;51.448;4.742;2023-05-10T14:01:14;0.98;;;0.70;;
54881;SDS011;40775;51.448;4.742;2023-05-10T14:03:41;1.35;;;0.70;;
54881;SDS011;40775;51.448;4.742;2023-05-10T14:06:09;1.10;;;0.50;;
54881;SDS011;40775;51.448;4.742;2023-05-10T14:08:36;2.13;;;0.85;;
54881;SDS011;40775;51.448;4.742;2023-05-10T14:11:03;2.15;;;1.15;;
54881;SDS011;40775;51.448;4.742;2023-05-10T14:13:31;1.50;;;0.52;;
54881;SDS011;40775;51.448;4.742;2023-05-10T14:15:58;1.75;;;0.70;;
54881;SDS011;40775;51.448;4.742;2023-05-10T14:18:27;1.05;;;0.52;;
54881;SDS011;40775;51.448;4.742;2023-05-10T14:20:54;1.00;;;0.60;;
54881;SDS011;40775;51.448;4.742;2023-05-10T14:23:22;2.45;;;0.68;;
54881;SDS011;40775;51.448;4.742;2023-05-10T14:25:54;1.38;;;0.95;;
54881;SDS011;40775;51.448;4.742;2023-05-10T14:28:22;0.90;;;0.40;;
54881;SDS011;40775;51.448;4.742;2023-05-10T14:30:51;1.55;;;0.75;;
54881;SDS011;40775;51.448;4.742;2023-05-10T14:33:18;1.17;;;0.77;;
54881;SDS011;40775;51.448;4.742;2023-05-10T14:35:46;0.68;;;0.65;;
54881;SDS011;40775;51.448;4.742;2023-05-10T14:38:14;0.50;;;0.28;;
54881;SDS011;40775;51.448;4.742;2023-05-10T14:40:42;1.75;;;0.63;;
54881;SDS011;40775;51.448;4.742;2023-05-10T14:43:09;1.33;;;0.70;;
54881;SDS011;40775;51.448;4.742;2023-05-10T14:45:36;0.70;;;0.50;;
54881;SDS011;40775;51.448;4.742;2023-05-10T14:48:04;1.58;;;0.82;;
54881;SDS011;40775;51.448;4.742;2023-05-10T14:50:32;1.90;;;0.82;;
54881;SDS011;40775;51.448;4.742;2023-05-10T14:53:02;3.38;;;0.88;;
54881;SDS011;40775;51.448;4.742;2023-05-10T14:55:29;1.52;;;0.65;;
54881;SDS011;40775;51.448;4.742;2023-05-10T14:57:57;1.95;;;0.93;;
54881;SDS011;40775;51.448;4.742;2023-05-10T15:00:25;3.15;;;1.38;;
54881;SDS011;40775;51.448;4.742;2023-05-10T15:02:53;2.65;;;0.90;;
54881;SDS011;40775;51.448;4.742;2023-05-10T15:05:22;3.08;;;1.50;;
54881;SDS011;40775;51.448;4.742;2023-05-10T15:07:50;3.20;;;1.67;;
54881;SDS011;40775;51.448;4.742;2023-05-10T15:10:17;4.28;;;1.67;;
54881;SDS011;40775;51.448;4.742;2023-05-10T15:12:46;1.90;;;0.90;;
54881;SDS011;40775;51.448;4.742;2023-05-10T15:15:13;4.28;;;1.27;;
54881;SDS011;40775;51.448;4.742;2023-05-10T15:17:41;2.65;;;1.27;;
54881;SDS011;40775;51.448;4.742;2023-05-10T15:20:08;2.40;;;1.48;;
54881;SDS011;40775;51.448;4.742;2023-05-10T15:22:36;3.22;;;1.27;;
54881;SDS011;40775;51.448;4.742;2023-05-10T15:25:04;2.45;;;1.27;;
54881;SDS011;40775;51.448;4.742;2023-05-10T15:27:32;3.20;;;1.42;;
54881;SDS011;40775;51.448;4.742;2023-05-10T15:29:59;2.88;;;1.30;;
54881;SDS011;40775;51.448;4.742;2023-05-10T15:32:27;1.80;;;1.05;;
54881;SDS011;40775;51.448;4.742;2023-05-10T15:34:57;3.75;;;1.50;;
54881;SDS011;40775;51.448;4.742;2023-05-10T15:37:25;3.90;;;1.10;;
54881;SDS011;40775;51.448;4.742;2023-05-10T15:39:53;2.00;;;1.10;;
54881;SDS011;40775;51.448;4.742;2023-05-10T15:42:27;5.68;;;1.60;;
54881;SDS011;40775;51.448;4.742;2023-05-10T15:44:58;3.25;;;0.90;;